createdAt,value
2023-08-03T00:02:14.770Z,4.22
2023-08-03T00:05:18.698Z,2.55
2023-08-03T00:08:19.468Z,1.92
2023-08-03T00:11:20.612Z,2.67
2023-08-03T00:14:21.498Z,2.58
2023-08-03T00:17:22.647Z,3.92
2023-08-03T00:20:24.114Z,3.08
2023-08-03T00:23:25.074Z,1.83
2023-08-03T00:26:25.834Z,3.22
2023-08-03T00:29:26.783Z,2.13
2023-08-03T00:32:27.898Z,2.33
2023-08-03T00:35:28.818Z,2.20
2023-08-03T00:38:29.931Z,2.17
2023-08-03T00:41:31.766Z,2.90
2023-08-03T00:44:33.076Z,3.03
2023-08-03T00:47:34.371Z,3.33
2023-08-03T00:50:36.032Z,1.67
2023-08-03T00:53:38.212Z,3.38
2023-08-03T00:56:39.380Z,4.03
2023-08-03T00:59:40.035Z,4.82
2023-08-03T01:02:41.467Z,3.67
2023-08-03T01:05:42.597Z,7.03
2023-08-03T01:08:43.454Z,5.80
2023-08-03T01:11:44.781Z,7.60
2023-08-03T01:14:46.221Z,7.35
2023-08-03T01:17:47.495Z,7.90
2023-08-03T01:20:48.992Z,5.90
2023-08-03T01:23:50.234Z,7.20
2023-08-03T01:26:52.130Z,6.20
2023-08-03T01:29:53.541Z,7.20
2023-08-03T01:32:54.846Z,4.75
2023-08-03T01:35:55.992Z,6.90
2023-08-03T01:39:07.441Z,6.20
2023-08-03T01:42:08.231Z,7.07
2023-08-03T01:45:09.337Z,5.85
2023-08-03T01:48:10.135Z,3.40
2023-08-03T01:51:10.977Z,7.90
2023-08-03T01:54:13.245Z,9.48
2023-08-03T01:57:16.270Z,9.23
2023-08-03T02:00:17.203Z,7.47
2023-08-03T02:03:21.391Z,7.75
2023-08-03T02:06:22.646Z,4.82
2023-08-03T02:09:23.761Z,7.70
2023-08-03T02:12:24.554Z,9.52
2023-08-03T02:15:25.675Z,8.10
2023-08-03T02:18:30.576Z,11.82
2023-08-03T02:21:31.407Z,7.07
2023-08-03T02:24:32.275Z,14.10
2023-08-03T02:27:34.648Z,5.45
2023-08-03T02:30:36.291Z,9.82
2023-08-03T02:33:37.306Z,8.50
2023-08-03T02:36:38.867Z,6.72
2023-08-03T02:39:43.388Z,7.60
2023-08-03T02:42:44.942Z,11.13
2023-08-03T02:45:46.641Z,11.15
2023-08-03T02:48:48.630Z,8.65
2023-08-03T02:51:50.791Z,7.95
2023-08-03T02:54:58.321Z,5.38
2023-08-03T02:57:59.187Z,8.75
2023-08-03T03:01:01.571Z,7.38
2023-08-03T03:04:02.827Z,9.85
2023-08-03T03:07:05.107Z,6.43
2023-08-03T03:10:06.489Z,9.50
2023-08-03T03:13:07.466Z,7.75
2023-08-03T03:16:08.494Z,7.55
2023-08-03T03:19:09.344Z,4.20
2023-08-03T03:22:12.667Z,7.93
2023-08-03T03:25:15.072Z,5.65
2023-08-03T03:28:16.033Z,7.53
2023-08-03T03:31:17.453Z,10.68
2023-08-03T03:34:18.753Z,9.80
2023-08-03T03:37:20.993Z,6.53
2023-08-03T03:40:22.942Z,4.13
2023-08-03T03:43:23.923Z,7.43
2023-08-03T03:46:25.542Z,8.73
2023-08-03T03:49:26.439Z,13.10
2023-08-03T03:52:27.569Z,7.93
2023-08-03T03:55:28.864Z,6.25
2023-08-03T03:58:30.690Z,7.82
2023-08-03T04:01:31.831Z,8.02
2023-08-03T04:04:32.993Z,5.50
2023-08-03T04:07:34.777Z,8.93
2023-08-03T04:10:36.702Z,9.40
2023-08-03T04:13:37.674Z,8.75
2023-08-03T04:16:38.860Z,11.20
2023-08-03T04:19:39.808Z,6.93
2023-08-03T04:22:41.371Z,4.93
2023-08-03T04:25:42.530Z,6.30
2023-08-03T04:28:51.336Z,6.35
2023-08-03T04:31:52.256Z,6.90
2023-08-03T04:34:53.887Z,4.75
2023-08-03T04:37:55.180Z,14.65
2023-08-03T04:40:57.153Z,6.45
2023-08-03T04:44:00.955Z,11.93
2023-08-03T04:47:05.508Z,7.10
2023-08-03T04:50:07.198Z,10.18
2023-08-03T04:53:08.648Z,10.02
2023-08-03T04:56:10.058Z,8.98
2023-08-03T04:59:11.250Z,8.55
2023-08-03T05:02:12.987Z,4.35
2023-08-03T05:05:14.197Z,5.63
2023-08-03T05:08:15.775Z,6.05
2023-08-03T05:11:16.864Z,4.53
2023-08-03T05:14:17.997Z,5.18
2023-08-03T05:17:18.919Z,6.63
2023-08-03T05:20:20.049Z,9.50
2023-08-03T05:23:21.513Z,7.47
2023-08-03T05:26:22.355Z,7.97
2023-08-03T05:29:23.360Z,6.45
2023-08-03T05:32:26.989Z,7.10
2023-08-03T05:35:28.186Z,8.00
2023-08-03T05:38:29.545Z,12.30
2023-08-03T05:41:30.861Z,4.13
2023-08-03T05:44:32.030Z,3.75
2023-08-03T05:47:33.283Z,5.68
2023-08-03T05:50:35.152Z,5.18
2023-08-03T05:53:36.327Z,3.47
2023-08-03T05:56:39.414Z,7.43
2023-08-03T05:59:41.260Z,8.38
2023-08-03T06:02:44.883Z,6.15
2023-08-03T06:05:51.632Z,5.68
2023-08-03T06:08:58.918Z,5.28
2023-08-03T06:11:59.744Z,4.32
2023-08-03T06:15:00.951Z,6.35
2023-08-03T06:18:11.993Z,6.45
2023-08-03T06:21:14.942Z,5.65
2023-08-03T06:24:15.996Z,9.25
2023-08-03T06:27:17.789Z,6.53
2023-08-03T06:30:19.356Z,3.05
2023-08-03T06:33:24.444Z,3.40
2023-08-03T06:36:26.901Z,5.03
2023-08-03T06:39:27.409Z,3.80
2023-08-03T06:42:28.486Z,2.60
2023-08-03T06:45:33.404Z,5.43
2023-08-03T06:48:34.706Z,1.98
2023-08-03T06:51:38.071Z,2.88
2023-08-03T06:54:39.110Z,2.65
2023-08-03T06:57:40.023Z,9.70
2023-08-03T07:00:42.769Z,2.95
2023-08-03T07:03:43.911Z,2.70
2023-08-03T07:06:48.764Z,4.68
2023-08-03T07:09:50.246Z,2.33
2023-08-03T07:12:51.104Z,2.75
2023-08-03T07:15:52.207Z,2.58
2023-08-03T07:18:53.306Z,3.08
2023-08-03T07:21:54.675Z,4.75
2023-08-03T07:24:55.742Z,2.75
2023-08-03T07:27:56.621Z,1.48
2023-08-03T07:30:57.388Z,2.75
2023-08-03T07:33:58.531Z,2.70
2023-08-03T07:37:00.665Z,3.33
2023-08-03T07:40:01.964Z,2.42
2023-08-03T07:43:02.675Z,4.15
2023-08-03T07:46:04.127Z,2.38
2023-08-03T07:49:05.377Z,2.13
2023-08-03T07:52:06.714Z,2.30
2023-08-03T07:55:08.026Z,2.15
2023-08-03T07:58:09.243Z,4.57
2023-08-03T08:01:10.482Z,1.20
2023-08-03T08:04:11.969Z,4.63
2023-08-03T08:07:12.671Z,1.95
2023-08-03T08:10:14.016Z,2.63
2023-08-03T08:13:15.120Z,2.35
2023-08-03T08:16:17.619Z,4.45
2023-08-03T08:19:18.586Z,2.22
2023-08-03T08:22:19.521Z,3.45
2023-08-03T08:25:21.193Z,1.25
2023-08-03T08:28:22.592Z,1.73
2023-08-03T08:31:23.545Z,1.98
2023-08-03T08:34:24.503Z,2.60
2023-08-03T08:37:25.490Z,2.10
2023-08-03T08:40:29.679Z,2.80
2023-08-03T08:43:31.143Z,2.67
2023-08-03T08:46:32.466Z,2.85
2023-08-03T09:01:53.303Z,2.50
2023-08-03T09:04:54.618Z,2.42
2023-08-03T09:08:06.056Z,3.03
2023-08-03T09:11:07.399Z,2.63
2023-08-03T09:14:10.681Z,3.03
2023-08-03T09:17:20.104Z,2.58
2023-08-03T09:29:46.771Z,2.17
2023-08-03T09:32:51.330Z,1.40
2023-08-03T09:45:33.780Z,2.80
2023-08-03T09:48:34.642Z,2.10
2023-08-03T09:51:37.798Z,2.70
2023-08-03T09:58:00.221Z,1.80
2023-08-03T10:01:05.593Z,2.20
2023-08-03T10:04:13.774Z,0.85
2023-08-03T10:07:18.817Z,1.23
2023-08-03T10:10:23.173Z,4.07
2023-08-03T10:13:26.696Z,1.58
2023-08-03T10:16:28.542Z,2.22
2023-08-03T10:19:30.043Z,1.73
2023-08-03T10:22:30.957Z,1.15
2023-08-03T10:25:31.979Z,2.38
2023-08-03T10:28:42.216Z,1.27
2023-08-03T10:31:54.734Z,2.22
2023-08-03T10:35:02.509Z,2.67
2023-08-03T10:41:24.168Z,1.27
2023-08-03T10:44:25.710Z,1.10
2023-08-03T10:47:31.477Z,0.95
2023-08-03T10:50:58.453Z,2.58
2023-08-03T10:54:00.343Z,1.08
2023-08-03T10:57:11.068Z,1.20
2023-08-03T11:00:13.073Z,0.55
2023-08-03T11:03:14.333Z,1.75
2023-08-03T11:06:16.033Z,0.45
2023-08-03T11:09:17.010Z,1.38
2023-08-03T11:12:18.857Z,2.40
2023-08-03T11:15:19.957Z,2.35
2023-08-03T11:18:21.210Z,0.70
2023-08-03T11:21:24.883Z,0.98
2023-08-03T11:24:25.886Z,4.28
2023-08-03T11:27:27.868Z,0.93
2023-08-03T11:30:28.907Z,0.90
2023-08-03T11:33:36.354Z,2.55
2023-08-03T11:39:38.100Z,3.08
2023-08-03T11:42:41.203Z,0.65
2023-08-03T11:45:45.205Z,1.63
2023-08-03T11:48:46.903Z,1.27
2023-08-03T11:51:49.105Z,1.10
2023-08-03T11:54:50.386Z,0.40
2023-08-03T11:58:10.464Z,2.20
2023-08-03T12:01:11.369Z,0.70
2023-08-03T12:04:15.118Z,0.55
2023-08-03T12:10:20.729Z,0.70
2023-08-03T12:13:21.974Z,0.90
2023-08-03T12:16:23.416Z,0.55
2023-08-03T12:22:26.675Z,0.65
2023-08-03T12:28:31.909Z,2.15
2023-08-03T12:31:34.009Z,0.50
2023-08-03T12:34:35.339Z,1.35
2023-08-03T12:37:36.724Z,0.50
2023-08-03T12:40:37.831Z,1.50
2023-08-03T12:43:38.971Z,0.95
2023-08-03T12:46:39.930Z,1.42
2023-08-03T12:49:40.898Z,1.95
2023-08-03T12:52:41.702Z,1.00
2023-08-03T12:55:42.794Z,1.17
2023-08-03T12:58:45.395Z,7.55
2023-08-03T13:01:46.525Z,0.47
2023-08-03T13:04:52.331Z,0.70
2023-08-03T13:07:53.819Z,0.80
2023-08-03T13:10:54.765Z,0.95
2023-08-03T13:13:55.553Z,2.50
2023-08-03T13:16:56.697Z,0.82
2023-08-03T13:19:57.943Z,2.80
2023-08-03T13:23:00.452Z,0.55
2023-08-03T13:26:01.682Z,0.57
2023-08-03T13:29:02.539Z,1.02
2023-08-03T13:32:05.380Z,0.65
2023-08-03T13:35:06.772Z,1.45
2023-08-03T13:38:07.830Z,0.52
2023-08-03T13:41:09.318Z,1.02
2023-08-03T13:44:10.500Z,2.05
2023-08-03T13:47:11.817Z,1.05
2023-08-03T13:50:12.697Z,1.25
2023-08-03T13:53:14.139Z,2.58
2023-08-03T13:56:15.431Z,1.00
2023-08-03T13:59:16.499Z,1.13
2023-08-03T14:02:17.978Z,0.70
2023-08-03T14:08:24.099Z,0.70
2023-08-03T14:11:27.179Z,1.50
2023-08-03T14:23:39.924Z,0.82
2023-08-03T14:26:41.024Z,2.35
2023-08-03T14:29:41.741Z,1.02
2023-08-03T14:32:44.016Z,0.60
2023-08-03T14:35:45.104Z,2.92
2023-08-03T14:38:46.134Z,1.58
2023-08-03T14:41:49.599Z,4.30
2023-08-03T14:44:51.931Z,0.75
2023-08-03T14:47:59.168Z,1.00
2023-08-03T14:51:00.245Z,1.17
2023-08-03T14:54:04.112Z,3.70
2023-08-03T14:57:06.419Z,2.33
2023-08-03T15:00:10.207Z,0.52
2023-08-03T15:03:11.203Z,0.98
2023-08-03T15:06:17.798Z,0.82
2023-08-03T15:09:18.666Z,1.15
2023-08-03T15:12:19.825Z,1.45
2023-08-03T15:18:31.788Z,0.63
2023-08-03T15:21:33.302Z,0.50
2023-08-03T15:24:35.741Z,2.65
2023-08-03T15:27:38.490Z,1.25
2023-08-03T15:33:44.853Z,2.67
2023-08-03T15:36:47.064Z,3.90
2023-08-03T15:39:49.676Z,1.90
2023-08-03T15:42:53.850Z,0.68
2023-08-03T15:45:57.858Z,2.80
2023-08-03T15:49:07.705Z,0.85
2023-08-03T15:52:16.677Z,0.60
2023-08-03T15:58:24.357Z,0.68
2023-08-03T16:01:26.903Z,0.95
2023-08-03T16:04:28.483Z,2.13
2023-08-03T16:07:29.536Z,0.60
2023-08-03T16:10:34.222Z,0.68
2023-08-03T16:13:35.810Z,0.82
2023-08-03T16:16:36.755Z,1.38
2023-08-03T16:19:38.650Z,0.90
2023-08-03T16:22:39.842Z,1.33
2023-08-03T16:25:40.826Z,0.88
2023-08-03T16:28:42.172Z,1.02
2023-08-03T16:31:53.326Z,0.70
2023-08-03T16:34:57.335Z,0.55
2023-08-03T16:37:59.843Z,0.50
2023-08-03T16:41:07.034Z,1.08
2023-08-03T16:44:07.650Z,1.02
2023-08-03T16:47:08.965Z,0.63
2023-08-03T16:50:10.621Z,1.85
2023-08-03T16:53:11.688Z,2.45
2023-08-03T16:56:12.911Z,0.82
2023-08-03T16:59:13.918Z,0.50
2023-08-03T17:02:14.860Z,1.50
2023-08-03T17:05:17.059Z,0.60
2023-08-03T17:08:18.118Z,0.90
2023-08-03T17:11:19.277Z,2.05
2023-08-03T17:14:25.324Z,1.55
2023-08-03T17:17:26.314Z,1.17
2023-08-03T17:20:27.330Z,1.05
2023-08-03T17:23:29.349Z,1.85
2023-08-03T17:26:31.060Z,0.85
2023-08-03T17:29:32.126Z,1.35
2023-08-03T17:32:34.023Z,1.05
2023-08-03T17:35:35.401Z,1.75
2023-08-03T17:38:36.319Z,3.67
2023-08-03T17:41:37.392Z,0.75
2023-08-03T17:44:38.596Z,3.22
2023-08-03T17:47:39.919Z,1.83
2023-08-03T17:50:44.137Z,1.30
2023-08-03T17:53:46.310Z,1.35
2023-08-03T17:56:47.793Z,1.73
2023-08-03T17:59:51.196Z,5.03
2023-08-03T18:02:52.177Z,1.17
2023-08-03T18:05:53.123Z,1.02
2023-08-03T18:08:56.661Z,0.85
2023-08-03T18:11:57.694Z,1.27
2023-08-03T18:14:58.785Z,3.22
2023-08-03T18:17:59.842Z,1.13
2023-08-03T18:21:00.850Z,1.45
2023-08-03T18:24:02.030Z,1.95
2023-08-03T18:27:03.306Z,4.88
2023-08-03T18:30:04.680Z,2.40
2023-08-03T18:33:05.705Z,1.13
2023-08-03T18:36:10.400Z,1.38
2023-08-03T18:39:11.062Z,1.60
2023-08-03T18:42:11.878Z,1.95
2023-08-03T18:45:12.731Z,1.42
2023-08-03T18:48:13.957Z,1.27
2023-08-03T18:51:22.378Z,1.40
2023-08-03T18:54:23.704Z,1.20
2023-08-03T18:57:24.725Z,1.02
2023-08-03T19:00:25.723Z,2.80
2023-08-03T19:03:27.870Z,2.55
2023-08-03T19:06:29.579Z,2.35
2023-08-03T19:09:30.645Z,2.20
2023-08-03T19:12:31.765Z,2.75
2023-08-03T19:15:33.261Z,5.28
2023-08-03T19:18:34.270Z,2.22
2023-08-03T19:21:35.120Z,2.15
2023-08-03T19:24:36.075Z,1.42
2023-08-03T19:27:38.045Z,2.05
2023-08-03T19:30:40.522Z,1.42
2023-08-03T19:33:41.325Z,0.95
2023-08-03T19:36:42.124Z,1.05
2023-08-03T19:39:43.072Z,1.63
2023-08-03T19:42:44.066Z,2.20
2023-08-03T19:45:45.186Z,1.33
2023-08-03T19:48:46.209Z,1.05
2023-08-03T20:07:14.028Z,3.33
2023-08-03T20:10:15.611Z,0.60
2023-08-03T20:13:16.719Z,1.67
2023-08-03T20:19:24.246Z,0.50
2023-08-03T20:22:26.749Z,2.58
2023-08-03T20:25:27.902Z,1.10
2023-08-03T20:28:29.002Z,0.50
2023-08-03T20:31:30.211Z,1.27
2023-08-03T20:34:31.521Z,2.53
2023-08-03T20:37:32.754Z,3.10
2023-08-03T20:43:40.249Z,4.45
2023-08-03T20:49:45.609Z,1.60
2023-08-03T20:52:47.019Z,1.38
2023-08-03T20:55:50.744Z,1.55
2023-08-03T20:58:52.076Z,0.80
2023-08-03T21:01:53.363Z,1.35
2023-08-03T21:04:54.564Z,1.15
2023-08-03T21:07:55.632Z,1.20
2023-08-03T21:10:57.777Z,1.08
2023-08-03T21:13:58.818Z,1.60
2023-08-03T21:17:00.068Z,2.60
2023-08-03T21:20:02.456Z,0.50
2023-08-03T21:23:03.711Z,1.67
2023-08-03T21:26:04.637Z,1.50
2023-08-03T21:29:06.621Z,0.80
2023-08-03T21:32:07.741Z,1.08
2023-08-03T21:35:11.001Z,0.70
2023-08-03T21:38:12.028Z,2.13
2023-08-03T21:41:12.968Z,3.47
2023-08-03T21:44:14.149Z,1.20
2023-08-03T21:47:15.299Z,3.20
2023-08-03T21:50:17.004Z,1.50
2023-08-03T21:53:18.225Z,3.47
2023-08-03T21:56:19.287Z,1.30
2023-08-03T21:59:20.294Z,1.25
2023-08-03T22:02:21.294Z,2.45
2023-08-03T22:05:22.620Z,0.98
2023-08-03T22:08:24.128Z,2.53
2023-08-03T22:11:25.057Z,2.42
2023-08-03T22:14:26.092Z,2.35
2023-08-03T22:17:26.923Z,3.80
2023-08-03T22:20:28.133Z,4.32
2023-08-03T22:23:29.316Z,1.05
2023-08-03T22:26:30.453Z,2.08
2023-08-03T22:29:31.579Z,1.27
2023-08-03T22:32:32.433Z,2.63
2023-08-03T22:35:33.427Z,4.90
2023-08-03T22:38:34.532Z,5.18
2023-08-03T22:41:35.597Z,0.93
2023-08-03T22:44:36.670Z,2.05
2023-08-03T22:48:01.720Z,2.17
2023-08-03T22:50:58.810Z,2.97
2023-08-03T22:54:00.129Z,2.55
2023-08-03T22:57:01.009Z,1.40
2023-08-03T23:00:01.973Z,2.60
2023-08-03T23:03:02.782Z,1.42
2023-08-03T23:06:11.905Z,3.40
2023-08-03T23:09:12.681Z,0.70
2023-08-03T23:12:13.846Z,3.70
2023-08-03T23:15:14.707Z,2.20
2023-08-03T23:18:15.843Z,2.53
2023-08-03T23:21:17.043Z,1.35
2023-08-03T23:24:17.994Z,2.58
2023-08-03T23:27:20.015Z,1.45
2023-08-03T23:30:21.944Z,1.27
2023-08-03T23:33:23.117Z,1.75
2023-08-03T23:36:24.195Z,5.85
2023-08-03T23:39:25.453Z,1.27
2023-08-03T23:42:26.578Z,2.85
2023-08-03T23:45:27.388Z,3.35
2023-08-03T23:48:28.283Z,2.95
2023-08-03T23:51:29.292Z,0.93
2023-08-03T23:54:30.924Z,5.18
2023-08-03T23:57:31.974Z,1.30
